Time;durP1;ratioP1;P1;durP2;ratioP2;P2;SDS_P1;SDS_P2;PMS_P1;PMS_P2;Temp;Humidity;BMP_temperature;BMP_pressure;BME280_temperature;BME280_humidity;BME280_pressure;Samples;Min_cycle;Max_cycle;Signal;HPM_P1;HPM_P2
2021/03/24 00:01:54;;;;;;;91.88;42.92;;;;;;;;;;5040786;28;20238;-67
2021/03/24 00:04:19;;;;;;;80.63;40.77;;;;;;;;;;5045365;28;20196;-68
2021/03/24 00:06:45;;;;;;;91.47;41.87;;;;;;;;;;5046873;28;20223;-67
2021/03/24 00:09:12;;;;;;;91.77;42.23;;;;;;;;;;5035844;28;20713;-66
2021/03/24 00:11:38;;;;;;;96.13;45.33;;;;;;;;;;5039810;28;20202;-66
2021/03/24 00:14:04;;;;;;;88.27;43.33;;;;;;;;;;5040960;28;20187;-67
2021/03/24 00:16:29;;;;;;;88.67;46.13;;;;;;;;;;5045961;28;20190;-67
2021/03/24 00:18:54;;;;;;;90.10;43.23;;;;;;;;;;5048823;28;20184;-67
2021/03/24 00:21:19;;;;;;;93.43;44.27;;;;;;;;;;5049390;28;20201;-69
2021/03/24 00:23:44;;;;;;;97.17;43.47;;;;;;;;;;5046939;28;20615;-67
2021/03/24 00:26:10;;;;;;;92.20;45.27;;;;;;;;;;5046593;28;20527;-67
2021/03/24 00:28:35;;;;;;;97.60;46.20;;;;;;;;;;5046507;28;20189;-67
2021/03/24 00:31:00;;;;;;;104.83;46.60;;;;;;;;;;5037880;28;20206;-67
2021/03/24 00:33:26;;;;;;;106.10;48.83;;;;;;;;;;5044871;28;20276;-67
2021/03/24 00:35:51;;;;;;;109.87;50.27;;;;;;;;;;5042674;28;21122;-67
2021/03/24 00:38:18;;;;;;;114.67;48.53;;;;;;;;;;5037724;28;20289;-67
2021/03/24 00:40:44;;;;;;;115.73;50.53;;;;;;;;;;5045648;28;20209;-67
2021/03/24 00:43:09;;;;;;;108.43;49.60;;;;;;;;;;5047655;28;20182;-67
2021/03/24 00:45:35;;;;;;;111.23;49.47;;;;;;;;;;5050960;28;20662;-67
2021/03/24 00:48:01;;;;;;;105.87;47.93;;;;;;;;;;5048201;28;20587;-67
2021/03/24 00:50:27;;;;;;;119.87;50.70;;;;;;;;;;5044356;28;20193;-67
2021/03/24 00:52:52;;;;;;;110.73;50.20;;;;;;;;;;5048970;28;20189;-66
2021/03/24 00:55:18;;;;;;;110.20;49.37;;;;;;;;;;5043174;28;20173;-66
2021/03/24 00:57:43;;;;;;;104.67;49.27;;;;;;;;;;5050800;28;20190;-66
2021/03/24 01:00:10;;;;;;;112.93;48.33;;;;;;;;;;5052879;28;20709;-67
2021/03/24 01:02:36;;;;;;;108.80;49.73;;;;;;;;;;5048204;28;20193;-67
2021/03/24 01:05:05;;;;;;;133.07;53.97;;;;;;;;;;5041847;28;20248;-67
2021/03/24 01:07:30;;;;;;;110.43;47.57;;;;;;;;;;5047476;28;20189;-65
2021/03/24 01:09:55;;;;;;;121.57;53.40;;;;;;;;;;5043482;28;20209;-67
2021/03/24 01:12:21;;;;;;;108.53;49.10;;;;;;;;;;5045637;28;20634;-67
2021/03/24 01:14:46;;;;;;;117.00;51.97;;;;;;;;;;5050685;28;20193;-67
2021/03/24 01:17:11;;;;;;;113.70;49.30;;;;;;;;;;5054715;28;20168;-67
2021/03/24 01:19:36;;;;;;;105.97;49.67;;;;;;;;;;5052320;28;20197;-67
2021/03/24 01:22:01;;;;;;;107.20;47.33;;;;;;;;;;5043350;28;20173;-67
2021/03/24 01:24:27;;;;;;;104.30;46.40;;;;;;;;;;5052445;28;20260;-67
2021/03/24 01:26:52;;;;;;;104.07;49.50;;;;;;;;;;5048911;28;20239;-67
2021/03/24 01:29:17;;;;;;;114.07;49.60;;;;;;;;;;5053606;28;20220;-67
2021/03/24 01:31:42;;;;;;;112.03;50.07;;;;;;;;;;5049616;28;20603;-66
2021/03/24 01:34:07;;;;;;;114.13;49.07;;;;;;;;;;5044649;28;20189;-67
2021/03/24 01:36:32;;;;;;;114.17;50.77;;;;;;;;;;5045500;28;20269;-67
2021/03/24 01:38:58;;;;;;;110.47;49.03;;;;;;;;;;5046929;28;20249;-67
2021/03/24 01:41:24;;;;;;;121.73;53.80;;;;;;;;;;5050720;28;20247;-67
2021/03/24 01:43:49;;;;;;;119.93;51.37;;;;;;;;;;5050517;28;20185;-67
2021/03/24 01:46:17;;;;;;;122.73;51.27;;;;;;;;;;5048052;28;20177;-67
2021/03/24 01:48:43;;;;;;;123.77;54.87;;;;;;;;;;5052094;28;20235;-67
2021/03/24 01:51:09;;;;;;;121.17;55.23;;;;;;;;;;5050748;28;20209;-66
2021/03/24 01:53:35;;;;;;;127.70;54.60;;;;;;;;;;5052607;28;20190;-67
2021/03/24 01:56:01;;;;;;;128.23;53.17;;;;;;;;;;5051495;28;20260;-67
2021/03/24 01:58:26;;;;;;;149.63;60.47;;;;;;;;;;5044678;28;20293;-67
2021/03/24 02:00:52;;;;;;;127.30;53.00;;;;;;;;;;5047431;28;20206;-67
2021/03/24 02:03:20;;;;;;;123.30;53.07;;;;;;;;;;5045675;28;20190;-67
2021/03/24 02:05:46;;;;;;;137.13;56.87;;;;;;;;;;5050665;28;20194;-67
2021/03/24 02:08:18;;;;;;;134.47;57.20;;;;;;;;;;5043478;28;20185;-67
2021/03/24 02:10:48;;;;;;;136.10;55.30;;;;;;;;;;5043557;28;20271;-67
2021/03/24 02:13:42;;;;;;;137.47;55.40;;;;;;;;;;5042204;28;20545;-67
2021/03/24 02:16:14;;;;;;;135.17;54.47;;;;;;;;;;5043974;28;20194;-67
2021/03/24 02:18:39;;;;;;;133.27;57.67;;;;;;;;;;5040352;28;20209;-67
2021/03/24 02:21:12;;;;;;;142.90;56.50;;;;;;;;;;5048493;28;20205;-68
2021/03/24 02:23:40;;;;;;;138.90;58.07;;;;;;;;;;5049794;28;20185;-67
2021/03/24 02:26:08;;;;;;;129.37;56.10;;;;;;;;;;5051195;28;20193;-67
2021/03/24 02:28:34;;;;;;;134.53;54.73;;;;;;;;;;5048806;28;20231;-66
2021/03/24 02:30:59;;;;;;;132.80;54.83;;;;;;;;;;5051650;28;20206;-67
2021/03/24 02:33:27;;;;;;;143.83;57.27;;;;;;;;;;5052241;28;20651;-67
2021/03/24 02:35:56;;;;;;;139.13;56.87;;;;;;;;;;5052422;28;20678;-66
2021/03/24 02:38:22;;;;;;;151.37;57.70;;;;;;;;;;5055718;28;20191;-67
2021/03/24 02:40:49;;;;;;;142.37;56.73;;;;;;;;;;5047676;28;20288;-67
2021/03/24 02:43:15;;;;;;;143.97;54.53;;;;;;;;;;5049775;28;20231;-67
2021/03/24 02:45:42;;;;;;;131.47;53.63;;;;;;;;;;5050857;28;20604;-67
2021/03/24 02:48:12;;;;;;;135.57;55.17;;;;;;;;;;5051116;28;20271;-67
2021/03/24 02:50:38;;;;;;;124.23;53.27;;;;;;;;;;5046161;28;20217;-67
2021/03/24 02:53:04;;;;;;;137.43;54.87;;;;;;;;;;5046723;28;20185;-67
2021/03/24 02:55:31;;;;;;;129.60;55.33;;;;;;;;;;5048065;28;20208;-67
2021/03/24 02:57:56;;;;;;;127.97;54.43;;;;;;;;;;5049995;28;20216;-67
2021/03/24 03:00:22;;;;;;;125.37;51.87;;;;;;;;;;5051645;28;20267;-67
2021/03/24 03:02:50;;;;;;;128.77;52.97;;;;;;;;;;5051021;28;20186;-66
2021/03/24 03:05:20;;;;;;;141.60;54.17;;;;;;;;;;5049247;28;20261;-66
2021/03/24 03:07:47;;;;;;;140.07;53.30;;;;;;;;;;5052419;28;20181;-67
2021/03/24 03:10:34;;;;;;;123.73;53.20;;;;;;;;;;5049252;28;20201;-67
2021/03/24 03:13:04;;;;;;;130.33;53.67;;;;;;;;;;5048294;28;20201;-69
2021/03/24 03:15:59;;;;;;;143.77;54.30;;;;;;;;;;5046359;28;20182;-67
2021/03/24 03:18:26;;;;;;;133.97;54.87;;;;;;;;;;5049205;28;20190;-67
2021/03/24 03:20:54;;;;;;;138.17;54.00;;;;;;;;;;5054450;28;20208;-68
2021/03/24 03:23:21;;;;;;;135.23;54.37;;;;;;;;;;5051615;28;20192;-66
2021/03/24 03:25:49;;;;;;;133.73;54.73;;;;;;;;;;5049973;28;20189;-67
2021/03/24 03:28:16;;;;;;;131.67;54.03;;;;;;;;;;5048449;28;20186;-67
2021/03/24 03:30:42;;;;;;;137.50;53.00;;;;;;;;;;5051449;28;20240;-69
2021/03/24 03:33:09;;;;;;;136.37;53.70;;;;;;;;;;5044468;28;20218;-67
2021/03/24 03:35:35;;;;;;;133.90;54.20;;;;;;;;;;5046978;28;20197;-67
2021/03/24 03:38:01;;;;;;;126.97;51.33;;;;;;;;;;5048989;28;20177;-67
2021/03/24 03:40:27;;;;;;;135.40;54.13;;;;;;;;;;5047703;28;20228;-67
2021/03/24 03:42:53;;;;;;;133.03;54.83;;;;;;;;;;5048714;28;20181;-69
2021/03/24 03:45:19;;;;;;;132.43;50.97;;;;;;;;;;5051484;28;20443;-69
2021/03/24 03:47:44;;;;;;;130.27;52.50;;;;;;;;;;5046316;28;20708;-67
2021/03/24 03:50:13;;;;;;;121.17;52.13;;;;;;;;;;5052070;28;20202;-67
2021/03/24 03:52:51;;;;;;;123.20;51.73;;;;;;;;;;5053966;28;20214;-67
2021/03/24 03:55:26;;;;;;;133.43;53.97;;;;;;;;;;5047405;28;20177;-67
2021/03/24 03:57:55;;;;;;;135.87;55.47;;;;;;;;;;5049559;28;20212;-67
2021/03/24 04:00:46;;;;;;;150.53;54.57;;;;;;;;;;5046441;28;20674;-67
2021/03/24 04:03:15;;;;;;;137.40;54.37;;;;;;;;;;5040414;28;20214;-67
2021/03/24 04:05:41;;;;;;;136.07;54.90;;;;;;;;;;5050519;28;20221;-67
2021/03/24 04:08:14;;;;;;;139.60;57.00;;;;;;;;;;5045927;28;20268;-67
2021/03/24 04:10:41;;;;;;;150.57;58.70;;;;;;;;;;5049733;28;20201;-67
2021/03/24 04:13:07;;;;;;;162.47;57.87;;;;;;;;;;5044444;28;20380;-67
2021/03/24 04:15:32;;;;;;;148.63;55.53;;;;;;;;;;5051116;28;20256;-67
2021/03/24 04:18:01;;;;;;;150.03;57.87;;;;;;;;;;5049458;28;20265;-67
2021/03/24 04:20:27;;;;;;;154.83;56.80;;;;;;;;;;5049330;28;20280;-67
2021/03/24 04:22:54;;;;;;;146.73;55.53;;;;;;;;;;5055107;28;20178;-67
2021/03/24 04:25:22;;;;;;;143.07;54.90;;;;;;;;;;5050372;28;20319;-67
2021/03/24 04:27:48;;;;;;;133.37;54.00;;;;;;;;;;5047342;28;20284;-67
2021/03/24 04:30:15;;;;;;;142.17;56.03;;;;;;;;;;5049665;28;20243;-66
2021/03/24 04:32:40;;;;;;;143.23;55.90;;;;;;;;;;5050270;28;20233;-66
2021/03/24 04:35:07;;;;;;;147.20;56.13;;;;;;;;;;5044268;28;20201;-67
2021/03/24 04:37:41;;;;;;;141.07;55.37;;;;;;;;;;5046026;28;20191;-66
2021/03/24 04:40:14;;;;;;;145.03;53.70;;;;;;;;;;5050276;28;20208;-67
2021/03/24 04:42:46;;;;;;;140.13;56.03;;;;;;;;;;5049364;28;20185;-69
2021/03/24 04:45:24;;;;;;;155.40;58.33;;;;;;;;;;5048410;28;20185;-67
2021/03/24 04:47:52;;;;;;;175.23;59.93;;;;;;;;;;5046375;28;20277;-67
2021/03/24 04:50:28;;;;;;;172.23;60.60;;;;;;;;;;5048153;28;20573;-67
2021/03/24 04:52:55;;;;;;;163.67;59.17;;;;;;;;;;5046262;28;20189;-67
2021/03/24 04:55:24;;;;;;;170.57;60.60;;;;;;;;;;5052608;28;20172;-67
2021/03/24 04:57:49;;;;;;;161.03;59.33;;;;;;;;;;5047825;28;20180;-67
2021/03/24 05:00:25;;;;;;;167.53;60.83;;;;;;;;;;5048873;28;20194;-67
2021/03/24 05:02:53;;;;;;;161.37;58.27;;;;;;;;;;5045466;28;20226;-65
2021/03/24 05:05:26;;;;;;;165.63;61.47;;;;;;;;;;5049838;28;20185;-67
2021/03/24 05:08:11;;;;;;;164.40;57.87;;;;;;;;;;5042820;28;20177;-67
2021/03/24 05:10:37;;;;;;;147.97;56.23;;;;;;;;;;5043085;28;20214;-67
2021/03/24 05:13:14;;;;;;;158.00;57.70;;;;;;;;;;5047108;28;20750;-68
2021/03/24 05:15:44;;;;;;;163.80;60.30;;;;;;;;;;5049982;28;20555;-69
2021/03/24 05:18:11;;;;;;;176.13;59.67;;;;;;;;;;5047351;28;20196;-69
2021/03/24 05:20:41;;;;;;;166.53;56.50;;;;;;;;;;5049664;28;20201;-69
2021/03/24 05:23:08;;;;;;;155.53;57.67;;;;;;;;;;5040888;28;20639;-69
2021/03/24 05:25:38;;;;;;;158.27;59.90;;;;;;;;;;5047703;28;20186;-68
2021/03/24 05:28:18;;;;;;;167.53;61.47;;;;;;;;;;5047038;28;20178;-67
2021/03/24 05:31:09;;;;;;;156.97;58.27;;;;;;;;;;5048498;28;20216;-67
2021/03/24 05:33:38;;;;;;;171.77;63.33;;;;;;;;;;5042424;28;20205;-67
2021/03/24 05:36:08;;;;;;;174.93;60.63;;;;;;;;;;5044391;28;20231;-69
2021/03/24 05:38:38;;;;;;;170.00;62.13;;;;;;;;;;5044901;28;20193;-67
2021/03/24 05:41:04;;;;;;;156.17;60.57;;;;;;;;;;5039266;28;20226;-67
2021/03/24 05:43:39;;;;;;;174.13;60.03;;;;;;;;;;5039235;28;20193;-66
2021/03/24 05:46:09;;;;;;;172.00;62.40;;;;;;;;;;5050588;28;20186;-67
2021/03/24 05:48:47;;;;;;;157.73;59.43;;;;;;;;;;5047244;28;20190;-67
2021/03/24 05:51:16;;;;;;;161.40;62.00;;;;;;;;;;5045397;28;20705;-67
2021/03/24 05:53:45;;;;;;;172.80;61.10;;;;;;;;;;5044173;28;20178;-67
2021/03/24 05:56:10;;;;;;;184.47;64.80;;;;;;;;;;5043557;28;20181;-67
2021/03/24 05:58:35;;;;;;;194.18;66.28;;;;;;;;;;5050650;28;20178;-67
2021/03/24 06:01:25;;;;;;;175.77;63.73;;;;;;;;;;5041642;28;20217;-67
2021/03/24 06:04:02;;;;;;;191.83;66.00;;;;;;;;;;5050852;28;20217;-67
2021/03/24 06:06:53;;;;;;;189.43;64.03;;;;;;;;;;5053204;28;20184;-68
2021/03/24 06:09:37;;;;;;;184.70;62.53;;;;;;;;;;5043587;28;20348;-67
2021/03/24 06:12:05;;;;;;;212.93;67.27;;;;;;;;;;5044551;28;20270;-68
2021/03/24 06:14:33;;;;;;;197.73;69.53;;;;;;;;;;5048333;28;20288;-68
2021/03/24 06:17:08;;;;;;;194.13;68.10;;;;;;;;;;5048399;28;20177;-66
2021/03/24 06:19:48;;;;;;;211.27;73.50;;;;;;;;;;5048966;28;20687;-67
2021/03/24 06:22:32;;;;;;;206.57;73.63;;;;;;;;;;5051749;28;20215;-67
2021/03/24 06:25:06;;;;;;;230.03;76.80;;;;;;;;;;5049249;28;20169;-68
2021/03/24 06:27:50;;;;;;;235.20;80.43;;;;;;;;;;5049872;28;20186;-68
2021/03/24 06:30:37;;;;;;;228.17;78.10;;;;;;;;;;5046322;28;20225;-68
2021/03/24 06:33:19;;;;;;;234.83;82.20;;;;;;;;;;5043908;28;20612;-67
2021/03/24 06:36:02;;;;;;;252.47;82.60;;;;;;;;;;5052505;28;20268;-68
2021/03/24 06:38:31;;;;;;;242.77;82.23;;;;;;;;;;5047623;28;20272;-68
2021/03/24 06:41:00;;;;;;;245.20;85.47;;;;;;;;;;5051056;28;20701;-67
2021/03/24 06:43:40;;;;;;;255.80;87.20;;;;;;;;;;5050966;28;20185;-68
2021/03/24 06:46:09;;;;;;;250.27;85.47;;;;;;;;;;5052429;28;20177;-67
2021/03/24 06:48:50;;;;;;;256.53;86.07;;;;;;;;;;5047699;28;20264;-68
2021/03/24 06:51:15;;;;;;;253.23;87.07;;;;;;;;;;5050330;28;20201;-67
2021/03/24 06:53:40;;;;;;;257.92;90.10;;;;;;;;;;5047842;28;20180;-66
2021/03/24 06:56:05;;;;;;;249.10;89.72;;;;;;;;;;5048544;28;20174;-67
2021/03/24 06:58:49;;;;;;;231.48;86.72;;;;;;;;;;5050420;28;20257;-67
2021/03/24 07:01:32;;;;;;;217.80;86.20;;;;;;;;;;5046189;28;20622;-68
2021/03/24 07:04:00;;;;;;;221.83;84.53;;;;;;;;;;5046855;28;20182;-67
2021/03/24 07:06:38;;;;;;;215.67;82.30;;;;;;;;;;5042836;28;20238;-68
2021/03/24 07:09:12;;;;;;;209.43;84.70;;;;;;;;;;5040540;28;20690;-68
2021/03/24 07:11:56;;;;;;;202.67;83.27;;;;;;;;;;5043603;28;20217;-67
2021/03/24 07:14:33;;;;;;;193.00;80.90;;;;;;;;;;5047009;28;20370;-68
2021/03/24 07:17:10;;;;;;;189.10;76.87;;;;;;;;;;5052964;28;20216;-67
2021/03/24 07:19:36;;;;;;;172.07;75.43;;;;;;;;;;5047383;28;20296;-68
2021/03/24 07:22:10;;;;;;;165.40;70.95;;;;;;;;;;5048352;28;20269;-67
2021/03/24 07:24:38;;;;;;;143.03;69.07;;;;;;;;;;5048178;28;20545;-67
2021/03/24 07:27:21;;;;;;;148.00;70.50;;;;;;;;;;5052735;28;20181;-68
2021/03/24 07:30:05;;;;;;;117.10;57.87;;;;;;;;;;5049104;28;20197;-68
2021/03/24 07:32:45;;;;;;;118.03;58.67;;;;;;;;;;5051379;28;20625;-67
2021/03/24 07:35:21;;;;;;;111.60;56.20;;;;;;;;;;5047690;28;20662;-67
2021/03/24 07:37:55;;;;;;;86.23;48.90;;;;;;;;;;5048386;28;20558;-67
2021/03/24 07:40:23;;;;;;;89.77;50.63;;;;;;;;;;5042648;28;20543;-68
2021/03/24 07:43:03;;;;;;;87.33;48.50;;;;;;;;;;5047811;28;20182;-67
2021/03/24 07:45:47;;;;;;;88.40;51.13;;;;;;;;;;5045025;28;20666;-67
2021/03/24 07:48:32;;;;;;;82.00;45.83;;;;;;;;;;5038661;28;20643;-67
2021/03/24 07:51:00;;;;;;;84.03;46.47;;;;;;;;;;5038735;28;20787;-67
2021/03/24 07:53:30;;;;;;;80.97;45.60;;;;;;;;;;5042980;28;20188;-67
2021/03/24 07:56:06;;;;;;;75.70;44.03;;;;;;;;;;5041591;28;20682;-67
2021/03/24 07:58:40;;;;;;;78.47;44.63;;;;;;;;;;5039989;28;20299;-66
2021/03/24 08:01:14;;;;;;;69.73;43.60;;;;;;;;;;5038768;28;20207;-67
2021/03/24 08:04:03;;;;;;;70.00;44.00;;;;;;;;;;5044161;28;20240;-67
2021/03/24 08:06:31;;;;;;;76.60;43.83;;;;;;;;;;5039595;28;20276;-69
2021/03/24 08:09:06;;;;;;;76.10;48.17;;;;;;;;;;5036394;28;20654;-67
2021/03/24 08:11:44;;;;;;;69.33;42.70;;;;;;;;;;5032496;28;20202;-67
2021/03/24 08:14:24;;;;;;;71.10;44.87;;;;;;;;;;5048791;28;21170;-67
2021/03/24 08:17:07;;;;;;;69.60;43.43;;;;;;;;;;5033897;28;20694;-65
2021/03/24 08:19:32;;;;;;;70.80;42.87;;;;;;;;;;5045600;28;20694;-66
2021/03/24 08:22:14;;;;;;;68.77;43.53;;;;;;;;;;5034009;28;20644;-66
2021/03/24 08:24:52;;;;;;;71.27;42.93;;;;;;;;;;5049017;28;20505;-66
2021/03/24 08:27:20;;;;;;;66.83;41.43;;;;;;;;;;5036802;28;20181;-66
2021/03/24 08:30:01;;;;;;;72.63;43.07;;;;;;;;;;5047161;28;20209;-66
2021/03/24 08:32:54;;;;;;;64.90;40.67;;;;;;;;;;5036756;28;21776;-67
2021/03/24 08:35:24;;;;;;;69.57;39.63;;;;;;;;;;5034745;28;20206;-65
2021/03/24 08:38:07;;;;;;;61.67;40.93;;;;;;;;;;5046621;28;20646;-66
2021/03/24 08:40:51;;;;;;;58.87;38.83;;;;;;;;;;5050286;28;20198;-67
2021/03/24 08:43:30;;;;;;;64.77;45.23;;;;;;;;;;5048572;28;20398;-66
2021/03/24 08:45:58;;;;;;;58.70;39.73;;;;;;;;;;5050106;28;20888;-66
2021/03/24 08:48:34;;;;;;;57.00;38.00;;;;;;;;;;5046203;28;20710;-67
2021/03/24 08:51:20;;;;;;;63.80;41.03;;;;;;;;;;5034370;28;20209;-66
2021/03/24 08:54:04;;;;;;;60.80;40.03;;;;;;;;;;5022808;28;20186;-66
2021/03/24 08:56:32;;;;;;;57.60;36.07;;;;;;;;;;5024380;28;24610;-65
2021/03/24 08:59:17;;;;;;;60.17;36.75;;;;;;;;;;5022652;28;20280;-65
2021/03/24 09:01:53;;;;;;;52.40;35.20;;;;;;;;;;5026872;28;20190;-66
2021/03/24 09:04:37;;;;;;;51.07;34.53;;;;;;;;;;5028810;28;20182;-67
2021/03/24 09:07:11;;;;;;;50.67;33.93;;;;;;;;;;5022542;28;20201;-66
2021/03/24 09:09:42;;;;;;;50.95;33.83;;;;;;;;;;5021382;28;20299;-67
2021/03/24 09:12:13;;;;;;;55.92;36.58;;;;;;;;;;5021584;28;20225;-66
2021/03/24 09:14:52;;;;;;;57.08;34.95;;;;;;;;;;5022306;28;20182;-66
2021/03/24 09:17:37;;;;;;;53.38;37.80;;;;;;;;;;5020922;28;20217;-66
2021/03/24 09:20:21;;;;;;;56.15;37.35;;;;;;;;;;5022084;28;20392;-67
2021/03/24 09:22:46;;;;;;;51.38;33.63;;;;;;;;;;5021778;28;20189;-67
2021/03/24 09:25:11;;;;;;;51.40;36.05;;;;;;;;;;5024164;28;20239;-66
2021/03/24 09:27:39;;;;;;;53.63;34.90;;;;;;;;;;5026580;28;20435;-67
2021/03/24 09:30:27;;;;;;;51.83;34.40;;;;;;;;;;5024367;28;20446;-66
2021/03/24 09:33:07;;;;;;;51.03;32.22;;;;;;;;;;5033807;28;20209;-67
2021/03/24 09:35:32;;;;;;;48.17;32.08;;;;;;;;;;5027737;28;20180;-67
2021/03/24 09:38:04;;;;;;;55.70;34.15;;;;;;;;;;5030424;28;20183;-67
2021/03/24 09:40:41;;;;;;;53.33;35.78;;;;;;;;;;5026613;28;20458;-67
2021/03/24 09:43:26;;;;;;;57.88;37.72;;;;;;;;;;5028114;28;20511;-67
2021/03/24 09:46:03;;;;;;;54.42;34.95;;;;;;;;;;5027823;28;20190;-67
2021/03/24 09:48:28;;;;;;;48.97;33.03;;;;;;;;;;5029650;28;20292;-68
2021/03/24 09:51:15;;;;;;;48.80;33.28;;;;;;;;;;5025639;28;20202;-66
2021/03/24 09:53:41;;;;;;;46.45;31.15;;;;;;;;;;5024798;28;20182;-66
2021/03/24 09:56:14;;;;;;;43.65;31.35;;;;;;;;;;5029523;28;20648;-67
2021/03/24 09:58:48;;;;;;;51.08;33.03;;;;;;;;;;5055813;28;20594;-66
2021/03/24 10:01:31;;;;;;;48.78;34.33;;;;;;;;;;5054027;28;20192;-66
2021/03/24 10:04:20;;;;;;;49.10;35.65;;;;;;;;;;5036819;28;20175;-68
2021/03/24 10:07:18;;;;;;;53.03;35.40;;;;;;;;;;5026577;28;20192;-69
2021/03/24 10:09:58;;;;;;;49.45;34.67;;;;;;;;;;5038398;28;20304;-67
2021/03/24 10:12:31;;;;;;;49.97;32.03;;;;;;;;;;5032698;28;21456;-67
2021/03/24 10:15:08;;;;;;;47.17;32.85;;;;;;;;;;5028000;28;20194;-66
2021/03/24 10:17:52;;;;;;;50.35;36.45;;;;;;;;;;5026993;28;20208;-67
2021/03/24 10:20:17;;;;;;;55.75;35.42;;;;;;;;;;5025996;28;20493;-69
2021/03/24 10:22:52;;;;;;;47.88;34.15;;;;;;;;;;5025556;28;20186;-66
2021/03/24 10:25:26;;;;;;;51.25;34.80;;;;;;;;;;5024984;28;20702;-69
2021/03/24 10:27:54;;;;;;;51.15;33.47;;;;;;;;;;5027528;28;20270;-67
2021/03/24 10:30:28;;;;;;;52.08;33.88;;;;;;;;;;5029772;28;20216;-67
2021/03/24 10:33:13;;;;;;;48.47;34.88;;;;;;;;;;5025163;28;20209;-67
2021/03/24 10:35:41;;;;;;;47.05;32.55;;;;;;;;;;5025183;28;20194;-69
2021/03/24 10:38:26;;;;;;;50.67;34.03;;;;;;;;;;5030677;28;20581;-68
2021/03/24 10:41:04;;;;;;;56.22;34.53;;;;;;;;;;5025947;28;20210;-67
2021/03/24 10:43:32;;;;;;;49.75;35.17;;;;;;;;;;5031015;28;20184;-65
2021/03/24 10:46:09;;;;;;;52.33;33.88;;;;;;;;;;5023757;28;20189;-68
2021/03/24 10:48:40;;;;;;;47.58;32.90;;;;;;;;;;5030671;28;20576;-67
2021/03/24 10:51:08;;;;;;;50.80;35.78;;;;;;;;;;5029978;28;20259;-67
2021/03/24 10:53:34;;;;;;;54.78;36.65;;;;;;;;;;5029679;28;20183;-67
2021/03/24 10:56:05;;;;;;;48.85;33.75;;;;;;;;;;5031204;28;20181;-68
2021/03/24 10:58:49;;;;;;;53.63;35.50;;;;;;;;;;5025844;28;20564;-69
2021/03/24 11:01:17;;;;;;;53.70;35.42;;;;;;;;;;5027814;28;20221;-68
2021/03/24 11:03:48;;;;;;;49.20;34.50;;;;;;;;;;5030587;28;20187;-68
2021/03/24 11:06:26;;;;;;;54.83;33.75;;;;;;;;;;5028103;28;20178;-68
2021/03/24 11:09:04;;;;;;;48.05;33.63;;;;;;;;;;5024594;28;20261;-68
2021/03/24 11:11:35;;;;;;;54.85;35.53;;;;;;;;;;5026257;28;20927;-68
2021/03/24 11:14:02;;;;;;;46.20;33.80;;;;;;;;;;5034046;28;20192;-68
2021/03/24 11:16:34;;;;;;;50.15;33.08;;;;;;;;;;5030050;28;20658;-68
2021/03/24 11:19:17;;;;;;;46.88;30.88;;;;;;;;;;5035797;28;20369;-68
2021/03/24 11:21:45;;;;;;;45.78;31.52;;;;;;;;;;5028366;28;20186;-68
2021/03/24 11:24:18;;;;;;;46.13;32.20;;;;;;;;;;5023624;28;20765;-68
2021/03/24 11:27:02;;;;;;;42.40;29.80;;;;;;;;;;5028694;28;20185;-68
2021/03/24 11:29:28;;;;;;;44.72;30.63;;;;;;;;;;5023325;28;20186;-69
2021/03/24 11:32:04;;;;;;;43.78;30.33;;;;;;;;;;5025377;28;20291;-68
2021/03/24 11:34:31;;;;;;;45.67;29.27;;;;;;;;;;5031297;28;20182;-68
2021/03/24 11:37:15;;;;;;;43.22;30.08;;;;;;;;;;5026571;28;20189;-67
2021/03/24 11:39:49;;;;;;;44.83;30.17;;;;;;;;;;5029626;28;20771;-69
2021/03/24 11:42:17;;;;;;;48.00;30.40;;;;;;;;;;5025559;28;20688;-68
2021/03/24 11:44:44;;;;;;;42.13;29.33;;;;;;;;;;5025236;28;20756;-67
2021/03/24 11:47:28;;;;;;;44.53;28.38;;;;;;;;;;5024276;28;20215;-67
2021/03/24 11:50:11;;;;;;;43.95;28.52;;;;;;;;;;5027381;28;20642;-69
2021/03/24 11:52:39;;;;;;;37.38;26.67;;;;;;;;;;5025435;28;20213;-68
2021/03/24 11:55:06;;;;;;;38.47;27.38;;;;;;;;;;5031656;28;20185;-67
2021/03/24 11:57:44;;;;;;;33.50;24.15;;;;;;;;;;5023826;28;20228;-66
2021/03/24 12:00:09;;;;;;;35.60;25.13;;;;;;;;;;5025642;28;20201;-67
2021/03/24 12:02:53;;;;;;;40.25;26.45;;;;;;;;;;5025414;28;20177;-66
2021/03/24 12:05:22;;;;;;;38.38;26.45;;;;;;;;;;5031584;28;21125;-67
2021/03/24 12:07:47;;;;;;;36.85;25.92;;;;;;;;;;5024943;28;20190;-67
2021/03/24 12:10:12;;;;;;;37.92;24.52;;;;;;;;;;5024270;28;20263;-67
2021/03/24 12:12:38;;;;;;;37.43;24.20;;;;;;;;;;5036541;28;20542;-67
2021/03/24 12:15:18;;;;;;;33.92;23.45;;;;;;;;;;5028183;28;20970;-66
2021/03/24 12:17:43;;;;;;;34.05;24.75;;;;;;;;;;5027019;28;20173;-67
2021/03/24 12:20:10;;;;;;;32.40;24.08;;;;;;;;;;5026554;28;20703;-67
2021/03/24 12:22:36;;;;;;;34.92;22.67;;;;;;;;;;5022633;28;20596;-67
2021/03/24 12:25:05;;;;;;;36.15;23.08;;;;;;;;;;5021677;28;20209;-66
2021/03/24 12:27:33;;;;;;;30.02;21.90;;;;;;;;;;5026567;28;20186;-67
2021/03/24 12:30:05;;;;;;;33.85;21.17;;;;;;;;;;5023503;28;20217;-67
2021/03/24 12:32:32;;;;;;;28.15;20.48;;;;;;;;;;5024864;28;20205;-65
2021/03/24 12:34:57;;;;;;;28.15;19.77;;;;;;;;;;5022379;28;20178;-66
2021/03/24 12:37:35;;;;;;;33.65;21.27;;;;;;;;;;5025343;28;20182;-67
2021/03/24 12:40:05;;;;;;;34.35;20.23;;;;;;;;;;5024183;28;20200;-66
2021/03/24 12:42:31;;;;;;;37.17;21.08;;;;;;;;;;5024634;28;20477;-66
2021/03/24 12:44:56;;;;;;;29.60;20.65;;;;;;;;;;5023907;28;21929;-66
2021/03/24 12:47:37;;;;;;;28.13;19.65;;;;;;;;;;5026994;28;20212;-67
2021/03/24 12:50:08;;;;;;;38.17;21.48;;;;;;;;;;5023131;28;20204;-66
2021/03/24 12:52:44;;;;;;;25.38;17.70;;;;;;;;;;5024354;28;20293;-67
2021/03/24 12:55:10;;;;;;;26.95;18.10;;;;;;;;;;5023974;28;20276;-67
2021/03/24 12:57:42;;;;;;;30.25;19.80;;;;;;;;;;5022566;28;20174;-67
2021/03/24 13:00:28;;;;;;;28.33;17.70;;;;;;;;;;5023992;28;20232;-66
2021/03/24 13:03:02;;;;;;;26.40;18.60;;;;;;;;;;5022589;28;20194;-66
2021/03/24 13:05:36;;;;;;;30.02;17.08;;;;;;;;;;5025685;28;20263;-65
2021/03/24 13:08:07;;;;;;;24.50;16.95;;;;;;;;;;5032673;28;20283;-66
2021/03/24 13:10:33;;;;;;;23.27;16.20;;;;;;;;;;5027095;28;20201;-67
2021/03/24 13:13:05;;;;;;;23.17;16.00;;;;;;;;;;5025723;28;20224;-67
2021/03/24 13:15:38;;;;;;;20.17;15.38;;;;;;;;;;5024068;28;21038;-67
2021/03/24 13:18:12;;;;;;;25.00;16.60;;;;;;;;;;5024636;28;21164;-68
2021/03/24 13:20:52;;;;;;;23.35;17.15;;;;;;;;;;5023179;28;20229;-67
2021/03/24 13:23:17;;;;;;;26.20;17.92;;;;;;;;;;5022034;28;20620;-68
2021/03/24 13:25:57;;;;;;;26.80;18.13;;;;;;;;;;5024704;28;20297;-68
2021/03/24 13:28:29;;;;;;;29.00;18.88;;;;;;;;;;5027766;28;20483;-68
2021/03/24 13:30:58;;;;;;;28.95;19.70;;;;;;;;;;5027747;28;20214;-67
2021/03/24 13:33:23;;;;;;;27.08;19.90;;;;;;;;;;5029532;28;20198;-67
2021/03/24 13:35:49;;;;;;;30.70;21.80;;;;;;;;;;5024964;28;20239;-67
2021/03/24 13:38:23;;;;;;;32.40;21.45;;;;;;;;;;5026801;28;20428;-68
2021/03/24 13:40:49;;;;;;;27.30;19.52;;;;;;;;;;5023938;28;20532;-68
2021/03/24 13:43:24;;;;;;;26.27;18.95;;;;;;;;;;5022826;28;20657;-68
2021/03/24 13:46:07;;;;;;;23.83;18.58;;;;;;;;;;5023479;28;20182;-68
2021/03/24 13:48:35;;;;;;;29.23;18.48;;;;;;;;;;5025262;28;20182;-68
2021/03/24 13:51:02;;;;;;;30.55;20.27;;;;;;;;;;5022808;28;20275;-66
2021/03/24 13:53:46;;;;;;;27.83;18.48;;;;;;;;;;5028266;28;20178;-68
2021/03/24 13:56:14;;;;;;;27.17;19.38;;;;;;;;;;5022239;28;20467;-66
2021/03/24 13:58:42;;;;;;;30.05;18.42;;;;;;;;;;5025157;28;20206;-67
2021/03/24 14:01:19;;;;;;;26.70;17.20;;;;;;;;;;5022386;28;20234;-67
2021/03/24 14:03:48;;;;;;;23.20;15.98;;;;;;;;;;5034950;28;20251;-67
2021/03/24 14:06:13;;;;;;;24.98;17.70;;;;;;;;;;5024324;28;20182;-67
2021/03/24 14:08:57;;;;;;;29.88;19.38;;;;;;;;;;5028370;28;20563;-67
2021/03/24 14:11:30;;;;;;;30.15;20.98;;;;;;;;;;5024115;28;20486;-67
2021/03/24 14:14:06;;;;;;;26.85;19.63;;;;;;;;;;5031979;28;20173;-67
2021/03/24 14:16:37;;;;;;;30.33;19.20;;;;;;;;;;5027737;28;20511;-67
2021/03/24 14:19:02;;;;;;;26.75;20.25;;;;;;;;;;5031208;28;20652;-67
2021/03/24 14:21:46;;;;;;;27.90;20.63;;;;;;;;;;5026074;28;20210;-66
2021/03/24 14:24:11;;;;;;;30.33;18.88;;;;;;;;;;5026878;28;20522;-67
2021/03/24 14:26:39;;;;;;;27.55;19.15;;;;;;;;;;5025585;28;20175;-68
2021/03/24 14:29:16;;;;;;;27.23;17.80;;;;;;;;;;5027918;28;20205;-68
2021/03/24 14:31:44;;;;;;;24.85;18.95;;;;;;;;;;5030118;28;20882;-66
2021/03/24 14:34:24;;;;;;;31.08;19.55;;;;;;;;;;5026420;28;20276;-66
2021/03/24 14:36:51;;;;;;;26.60;19.15;;;;;;;;;;5023663;28;20181;-69
2021/03/24 14:39:27;;;;;;;30.85;19.55;;;;;;;;;;5025392;28;20231;-66